sensor_id;sensor_type;location;lat;lon;timestamp;P1;durP1;ratioP1;P2;durP2;ratioP2
15354;SDS011;7777;52.254;9.618;2024-02-21T00:00:49;24.20;;;12.03;;
15354;SDS011;7777;52.254;9.618;2024-02-21T00:03:15;21.87;;;9.90;;
15354;SDS011;7777;52.254;9.618;2024-02-21T00:05:41;18.53;;;9.83;;
15354;SDS011;7777;52.254;9.618;2024-02-21T00:08:07;20.23;;;11.10;;
15354;SDS011;7777;52.254;9.618;2024-02-21T00:10:32;17.83;;;9.10;;
15354;SDS011;7777;52.254;9.618;2024-02-21T00:13:00;21.77;;;10.77;;
15354;SDS011;7777;52.254;9.618;2024-02-21T00:15:26;18.70;;;10.90;;
15354;SDS011;7777;52.254;9.618;2024-02-21T00:17:51;21.27;;;10.93;;
15354;SDS011;7777;52.254;9.618;2024-02-21T00:20:17;24.80;;;12.53;;
15354;SDS011;7777;52.254;9.618;2024-02-21T00:22:43;23.67;;;11.80;;
15354;SDS011;7777;52.254;9.618;2024-02-21T00:25:09;25.93;;;10.87;;
15354;SDS011;7777;52.254;9.618;2024-02-21T00:27:36;25.37;;;11.33;;
15354;SDS011;7777;52.254;9.618;2024-02-21T00:30:02;24.67;;;11.27;;
15354;SDS011;7777;52.254;9.618;2024-02-21T00:32:28;21.30;;;12.03;;
15354;SDS011;7777;52.254;9.618;2024-02-21T00:34:54;18.53;;;10.83;;
15354;SDS011;7777;52.254;9.618;2024-02-21T00:37:19;24.27;;;11.67;;
15354;SDS011;7777;52.254;9.618;2024-02-21T00:39:45;26.20;;;12.30;;
15354;SDS011;7777;52.254;9.618;2024-02-21T00:42:11;25.67;;;13.93;;
15354;SDS011;7777;52.254;9.618;2024-02-21T00:44:38;18.57;;;12.40;;
15354;SDS011;7777;52.254;9.618;2024-02-21T00:47:04;21.83;;;11.97;;
15354;SDS011;7777;52.254;9.618;2024-02-21T00:49:29;23.80;;;11.90;;
15354;SDS011;7777;52.254;9.618;2024-02-21T00:51:55;20.33;;;12.03;;
15354;SDS011;7777;52.254;9.618;2024-02-21T00:54:21;20.77;;;12.03;;
15354;SDS011;7777;52.254;9.618;2024-02-21T00:56:47;21.53;;;12.00;;
15354;SDS011;7777;52.254;9.618;2024-02-21T00:59:15;30.20;;;14.87;;
15354;SDS011;7777;52.254;9.618;2024-02-21T01:01:40;26.17;;;14.43;;
15354;SDS011;7777;52.254;9.618;2024-02-21T01:04:07;26.00;;;12.37;;
15354;SDS011;7777;52.254;9.618;2024-02-21T01:06:34;20.83;;;11.57;;
15354;SDS011;7777;52.254;9.618;2024-02-21T01:09:00;23.93;;;13.13;;
15354;SDS011;7777;52.254;9.618;2024-02-21T01:11:26;21.53;;;11.47;;
15354;SDS011;7777;52.254;9.618;2024-02-21T01:13:52;20.70;;;11.37;;
15354;SDS011;7777;52.254;9.618;2024-02-21T01:16:18;20.93;;;12.70;;
15354;SDS011;7777;52.254;9.618;2024-02-21T01:18:43;21.03;;;11.97;;
15354;SDS011;7777;52.254;9.618;2024-02-21T01:21:09;28.50;;;12.70;;
15354;SDS011;7777;52.254;9.618;2024-02-21T01:23:35;24.43;;;12.63;;
15354;SDS011;7777;52.254;9.618;2024-02-21T01:26:05;26.43;;;12.07;;
15354;SDS011;7777;52.254;9.618;2024-02-21T01:28:33;25.17;;;12.00;;
15354;SDS011;7777;52.254;9.618;2024-02-21T01:31:00;20.40;;;11.77;;
15354;SDS011;7777;52.254;9.618;2024-02-21T01:33:26;26.37;;;13.03;;
15354;SDS011;7777;52.254;9.618;2024-02-21T01:35:52;24.80;;;13.17;;
15354;SDS011;7777;52.254;9.618;2024-02-21T01:38:18;24.40;;;12.40;;
15354;SDS011;7777;52.254;9.618;2024-02-21T01:40:43;18.97;;;11.57;;
15354;SDS011;7777;52.254;9.618;2024-02-21T01:43:16;19.40;;;11.23;;
15354;SDS011;7777;52.254;9.618;2024-02-21T01:45:48;20.33;;;11.50;;
15354;SDS011;7777;52.254;9.618;2024-02-21T01:48:17;24.23;;;12.50;;
15354;SDS011;7777;52.254;9.618;2024-02-21T01:50:44;23.07;;;13.63;;
15354;SDS011;7777;52.254;9.618;2024-02-21T01:53:11;26.43;;;13.03;;
15354;SDS011;7777;52.254;9.618;2024-02-21T01:55:44;25.47;;;13.40;;
15354;SDS011;7777;52.254;9.618;2024-02-21T01:58:11;20.60;;;12.40;;
15354;SDS011;7777;52.254;9.618;2024-02-21T02:00:44;21.40;;;12.70;;
15354;SDS011;7777;52.254;9.618;2024-02-21T02:03:12;21.67;;;12.80;;
15354;SDS011;7777;52.254;9.618;2024-02-21T02:05:42;20.27;;;11.50;;
15354;SDS011;7777;52.254;9.618;2024-02-21T02:08:17;22.17;;;11.77;;
15354;SDS011;7777;52.254;9.618;2024-02-21T02:10:44;25.20;;;12.73;;
15354;SDS011;7777;52.254;9.618;2024-02-21T02:13:11;20.40;;;12.60;;
15354;SDS011;7777;52.254;9.618;2024-02-21T02:15:47;20.07;;;12.90;;
15354;SDS011;7777;52.254;9.618;2024-02-21T02:18:14;19.97;;;11.70;;
15354;SDS011;7777;52.254;9.618;2024-02-21T02:20:41;25.30;;;13.27;;
15354;SDS011;7777;52.254;9.618;2024-02-21T02:23:10;21.07;;;12.07;;
15354;SDS011;7777;52.254;9.618;2024-02-21T02:25:37;19.20;;;13.13;;
15354;SDS011;7777;52.254;9.618;2024-02-21T02:28:06;25.50;;;12.70;;
15354;SDS011;7777;52.254;9.618;2024-02-21T02:30:33;23.13;;;13.57;;
15354;SDS011;7777;52.254;9.618;2024-02-21T02:33:01;22.33;;;11.90;;
15354;SDS011;7777;52.254;9.618;2024-02-21T02:35:28;20.83;;;12.53;;
15354;SDS011;7777;52.254;9.618;2024-02-21T02:37:54;22.60;;;12.27;;
15354;SDS011;7777;52.254;9.618;2024-02-21T02:40:19;23.57;;;13.37;;
15354;SDS011;7777;52.254;9.618;2024-02-21T02:42:45;19.80;;;12.40;;
15354;SDS011;7777;52.254;9.618;2024-02-21T02:45:11;24.00;;;12.60;;
15354;SDS011;7777;52.254;9.618;2024-02-21T02:47:39;24.03;;;13.40;;
15354;SDS011;7777;52.254;9.618;2024-02-21T02:50:06;22.43;;;13.40;;
15354;SDS011;7777;52.254;9.618;2024-02-21T02:52:32;22.50;;;12.60;;
15354;SDS011;7777;52.254;9.618;2024-02-21T02:54:58;24.07;;;12.40;;
15354;SDS011;7777;52.254;9.618;2024-02-21T02:57:24;20.00;;;12.10;;
15354;SDS011;7777;52.254;9.618;2024-02-21T02:59:50;23.83;;;12.13;;
15354;SDS011;7777;52.254;9.618;2024-02-21T03:02:16;21.70;;;11.93;;
15354;SDS011;7777;52.254;9.618;2024-02-21T03:04:45;20.93;;;12.13;;
15354;SDS011;7777;52.254;9.618;2024-02-21T03:07:11;23.80;;;12.27;;
15354;SDS011;7777;52.254;9.618;2024-02-21T03:09:37;22.40;;;12.67;;
15354;SDS011;7777;52.254;9.618;2024-02-21T03:12:04;22.63;;;12.83;;
15354;SDS011;7777;52.254;9.618;2024-02-21T03:14:31;21.80;;;11.37;;
15354;SDS011;7777;52.254;9.618;2024-02-21T03:16:58;19.23;;;12.20;;
15354;SDS011;7777;52.254;9.618;2024-02-21T03:19:24;23.23;;;11.73;;
15354;SDS011;7777;52.254;9.618;2024-02-21T03:21:51;21.13;;;11.67;;
15354;SDS011;7777;52.254;9.618;2024-02-21T03:24:18;19.80;;;13.27;;
15354;SDS011;7777;52.254;9.618;2024-02-21T03:26:44;21.37;;;11.67;;
15354;SDS011;7777;52.254;9.618;2024-02-21T03:29:14;18.90;;;13.00;;
15354;SDS011;7777;52.254;9.618;2024-02-21T03:31:41;20.93;;;12.73;;
15354;SDS011;7777;52.254;9.618;2024-02-21T03:34:08;22.13;;;12.57;;
15354;SDS011;7777;52.254;9.618;2024-02-21T03:36:36;18.57;;;12.40;;
15354;SDS011;7777;52.254;9.618;2024-02-21T03:39:01;22.40;;;12.07;;
15354;SDS011;7777;52.254;9.618;2024-02-21T03:41:28;23.17;;;12.97;;
15354;SDS011;7777;52.254;9.618;2024-02-21T03:43:54;20.17;;;11.77;;
15354;SDS011;7777;52.254;9.618;2024-02-21T03:46:20;24.50;;;12.27;;
15354;SDS011;7777;52.254;9.618;2024-02-21T03:48:46;24.70;;;12.80;;
15354;SDS011;7777;52.254;9.618;2024-02-21T03:51:12;23.13;;;13.13;;
15354;SDS011;7777;52.254;9.618;2024-02-21T03:53:38;21.63;;;12.37;;
15354;SDS011;7777;52.254;9.618;2024-02-21T03:56:04;21.17;;;12.07;;
15354;SDS011;7777;52.254;9.618;2024-02-21T03:58:30;21.50;;;12.93;;
15354;SDS011;7777;52.254;9.618;2024-02-21T04:00:56;26.13;;;13.43;;
15354;SDS011;7777;52.254;9.618;2024-02-21T04:03:25;22.20;;;11.80;;
15354;SDS011;7777;52.254;9.618;2024-02-21T04:05:50;22.00;;;13.13;;
15354;SDS011;7777;52.254;9.618;2024-02-21T04:08:17;23.53;;;13.63;;
15354;SDS011;7777;52.254;9.618;2024-02-21T04:10:42;25.87;;;12.63;;
15354;SDS011;7777;52.254;9.618;2024-02-21T04:13:08;24.87;;;13.70;;
15354;SDS011;7777;52.254;9.618;2024-02-21T04:15:35;21.67;;;13.33;;
15354;SDS011;7777;52.254;9.618;2024-02-21T04:18:01;24.93;;;13.53;;
15354;SDS011;7777;52.254;9.618;2024-02-21T04:20:28;24.20;;;13.03;;
15354;SDS011;7777;52.254;9.618;2024-02-21T04:22:54;26.17;;;13.60;;
15354;SDS011;7777;52.254;9.618;2024-02-21T04:25:21;22.60;;;13.47;;
15354;SDS011;7777;52.254;9.618;2024-02-21T04:27:48;21.70;;;13.43;;
15354;SDS011;7777;52.254;9.618;2024-02-21T04:30:14;21.63;;;13.07;;
15354;SDS011;7777;52.254;9.618;2024-02-21T04:32:41;22.30;;;14.33;;
15354;SDS011;7777;52.254;9.618;2024-02-21T04:35:07;21.43;;;13.17;;
15354;SDS011;7777;52.254;9.618;2024-02-21T04:37:34;21.93;;;12.80;;
15354;SDS011;7777;52.254;9.618;2024-02-21T04:39:59;28.80;;;14.33;;
15354;SDS011;7777;52.254;9.618;2024-02-21T04:42:25;21.00;;;13.43;;
15354;SDS011;7777;52.254;9.618;2024-02-21T04:44:51;23.23;;;12.77;;
15354;SDS011;7777;52.254;9.618;2024-02-21T04:47:18;26.10;;;13.33;;
15354;SDS011;7777;52.254;9.618;2024-02-21T04:49:45;26.00;;;14.10;;
15354;SDS011;7777;52.254;9.618;2024-02-21T04:52:11;29.03;;;13.60;;
15354;SDS011;7777;52.254;9.618;2024-02-21T04:54:38;21.27;;;12.73;;
15354;SDS011;7777;52.254;9.618;2024-02-21T04:57:04;25.37;;;14.13;;
15354;SDS011;7777;52.254;9.618;2024-02-21T04:59:31;21.40;;;13.40;;
15354;SDS011;7777;52.254;9.618;2024-02-21T05:01:57;25.53;;;13.70;;
15354;SDS011;7777;52.254;9.618;2024-02-21T05:04:23;21.23;;;13.23;;
15354;SDS011;7777;52.254;9.618;2024-02-21T05:06:49;19.10;;;12.13;;
15354;SDS011;7777;52.254;9.618;2024-02-21T05:09:15;20.13;;;12.63;;
15354;SDS011;7777;52.254;9.618;2024-02-21T05:11:41;19.23;;;12.10;;
15354;SDS011;7777;52.254;9.618;2024-02-21T05:14:06;24.73;;;13.53;;
15354;SDS011;7777;52.254;9.618;2024-02-21T05:16:32;21.33;;;13.33;;
15354;SDS011;7777;52.254;9.618;2024-02-21T05:18:58;20.83;;;13.50;;
15354;SDS011;7777;52.254;9.618;2024-02-21T05:21:24;20.50;;;13.07;;
15354;SDS011;7777;52.254;9.618;2024-02-21T05:23:50;22.17;;;13.10;;
15354;SDS011;7777;52.254;9.618;2024-02-21T05:26:22;21.50;;;13.17;;
15354;SDS011;7777;52.254;9.618;2024-02-21T05:28:50;22.50;;;13.03;;
15354;SDS011;7777;52.254;9.618;2024-02-21T05:31:17;26.20;;;13.00;;
15354;SDS011;7777;52.254;9.618;2024-02-21T05:33:44;24.93;;;13.07;;
15354;SDS011;7777;52.254;9.618;2024-02-21T05:36:10;24.23;;;13.00;;
15354;SDS011;7777;52.254;9.618;2024-02-21T05:38:36;20.07;;;12.37;;
15354;SDS011;7777;52.254;9.618;2024-02-21T05:41:03;21.90;;;13.47;;
15354;SDS011;7777;52.254;9.618;2024-02-21T05:43:29;23.47;;;13.17;;
15354;SDS011;7777;52.254;9.618;2024-02-21T05:45:55;18.57;;;11.33;;
15354;SDS011;7777;52.254;9.618;2024-02-21T05:48:23;25.13;;;13.23;;
15354;SDS011;7777;52.254;9.618;2024-02-21T05:50:50;26.43;;;12.03;;
15354;SDS011;7777;52.254;9.618;2024-02-21T05:53:16;16.07;;;11.13;;
15354;SDS011;7777;52.254;9.618;2024-02-21T05:55:42;19.80;;;11.53;;
15354;SDS011;7777;52.254;9.618;2024-02-21T05:58:08;19.80;;;12.43;;
15354;SDS011;7777;52.254;9.618;2024-02-21T06:00:38;22.87;;;11.93;;
15354;SDS011;7777;52.254;9.618;2024-02-21T06:03:04;17.90;;;11.83;;
15354;SDS011;7777;52.254;9.618;2024-02-21T06:05:30;28.77;;;13.60;;
15354;SDS011;7777;52.254;9.618;2024-02-21T06:07:56;18.57;;;12.03;;
15354;SDS011;7777;52.254;9.618;2024-02-21T06:10:22;21.90;;;12.70;;
15354;SDS011;7777;52.254;9.618;2024-02-21T06:12:48;19.70;;;11.60;;
15354;SDS011;7777;52.254;9.618;2024-02-21T06:15:14;22.33;;;12.00;;
15354;SDS011;7777;52.254;9.618;2024-02-21T06:17:40;21.17;;;13.07;;
15354;SDS011;7777;52.254;9.618;2024-02-21T06:20:07;30.10;;;13.90;;
15354;SDS011;7777;52.254;9.618;2024-02-21T06:22:33;24.77;;;12.90;;
15354;SDS011;7777;52.254;9.618;2024-02-21T06:24:59;19.20;;;11.97;;
15354;SDS011;7777;52.254;9.618;2024-02-21T06:27:25;18.97;;;12.67;;
15354;SDS011;7777;52.254;9.618;2024-02-21T06:29:51;28.43;;;14.00;;
15354;SDS011;7777;52.254;9.618;2024-02-21T06:32:16;23.13;;;12.43;;
15354;SDS011;7777;52.254;9.618;2024-02-21T06:34:42;22.53;;;12.23;;
15354;SDS011;7777;52.254;9.618;2024-02-21T06:37:08;27.00;;;13.53;;
15354;SDS011;7777;52.254;9.618;2024-02-21T06:39:34;20.30;;;13.73;;
15354;SDS011;7777;52.254;9.618;2024-02-21T06:42:03;18.90;;;11.53;;
15354;SDS011;7777;52.254;9.618;2024-02-21T06:44:29;20.90;;;11.37;;
15354;SDS011;7777;52.254;9.618;2024-02-21T06:46:55;22.83;;;11.60;;
15354;SDS011;7777;52.254;9.618;2024-02-21T06:49:20;20.97;;;10.83;;
15354;SDS011;7777;52.254;9.618;2024-02-21T06:51:46;19.90;;;11.20;;
15354;SDS011;7777;52.254;9.618;2024-02-21T06:54:12;21.03;;;10.57;;
15354;SDS011;7777;52.254;9.618;2024-02-21T06:56:39;17.73;;;11.70;;
15354;SDS011;7777;52.254;9.618;2024-02-21T06:59:05;18.17;;;11.27;;
15354;SDS011;7777;52.254;9.618;2024-02-21T07:01:31;17.07;;;10.77;;
15354;SDS011;7777;52.254;9.618;2024-02-21T07:03:58;23.60;;;12.07;;
15354;SDS011;7777;52.254;9.618;2024-02-21T07:06:23;18.90;;;11.13;;
15354;SDS011;7777;52.254;9.618;2024-02-21T07:08:49;17.83;;;9.97;;
15354;SDS011;7777;52.254;9.618;2024-02-21T07:11:16;19.20;;;11.10;;
15354;SDS011;7777;52.254;9.618;2024-02-21T07:13:42;17.50;;;10.80;;
15354;SDS011;7777;52.254;9.618;2024-02-21T07:16:12;17.93;;;11.33;;
15354;SDS011;7777;52.254;9.618;2024-02-21T07:18:38;25.03;;;10.90;;
15354;SDS011;7777;52.254;9.618;2024-02-21T07:21:03;19.53;;;11.47;;
15354;SDS011;7777;52.254;9.618;2024-02-21T07:23:30;20.87;;;11.37;;
15354;SDS011;7777;52.254;9.618;2024-02-21T07:25:55;18.97;;;11.43;;
15354;SDS011;7777;52.254;9.618;2024-02-21T07:28:21;18.90;;;11.33;;
15354;SDS011;7777;52.254;9.618;2024-02-21T07:30:47;22.23;;;10.73;;
15354;SDS011;7777;52.254;9.618;2024-02-21T07:33:13;14.33;;;9.70;;
15354;SDS011;7777;52.254;9.618;2024-02-21T07:35:39;18.03;;;10.63;;
15354;SDS011;7777;52.254;9.618;2024-02-21T07:38:07;18.43;;;10.77;;
15354;SDS011;7777;52.254;9.618;2024-02-21T07:40:37;20.13;;;11.33;;
15354;SDS011;7777;52.254;9.618;2024-02-21T07:43:03;20.20;;;11.90;;
15354;SDS011;7777;52.254;9.618;2024-02-21T07:45:28;19.63;;;10.83;;
15354;SDS011;7777;52.254;9.618;2024-02-21T07:47:54;25.63;;;11.53;;
15354;SDS011;7777;52.254;9.618;2024-02-21T07:50:20;19.13;;;10.97;;
15354;SDS011;7777;52.254;9.618;2024-02-21T07:52:47;19.50;;;12.17;;
15354;SDS011;7777;52.254;9.618;2024-02-21T07:55:12;15.20;;;9.83;;
15354;SDS011;7777;52.254;9.618;2024-02-21T07:57:38;22.83;;;10.93;;
15354;SDS011;7777;52.254;9.618;2024-02-21T08:00:04;18.27;;;9.53;;
15354;SDS011;7777;52.254;9.618;2024-02-21T08:02:36;15.87;;;10.57;;
15354;SDS011;7777;52.254;9.618;2024-02-21T08:05:03;19.40;;;10.93;;
15354;SDS011;7777;52.254;9.618;2024-02-21T08:07:28;19.93;;;10.77;;
15354;SDS011;7777;52.254;9.618;2024-02-21T08:09:57;18.57;;;10.53;;
15354;SDS011;7777;52.254;9.618;2024-02-21T08:12:22;24.00;;;10.77;;
15354;SDS011;7777;52.254;9.618;2024-02-21T08:14:49;25.70;;;13.57;;
15354;SDS011;7777;52.254;9.618;2024-02-21T08:17:15;27.87;;;15.33;;
15354;SDS011;7777;52.254;9.618;2024-02-21T08:19:40;17.53;;;11.00;;
15354;SDS011;7777;52.254;9.618;2024-02-21T08:22:06;22.57;;;10.10;;
15354;SDS011;7777;52.254;9.618;2024-02-21T08:24:32;26.73;;;17.43;;
15354;SDS011;7777;52.254;9.618;2024-02-21T08:26:58;30.87;;;15.43;;
15354;SDS011;7777;52.254;9.618;2024-02-21T08:29:25;20.20;;;9.03;;
15354;SDS011;7777;52.254;9.618;2024-02-21T08:31:50;16.87;;;8.93;;
15354;SDS011;7777;52.254;9.618;2024-02-21T08:34:16;17.47;;;8.07;;
15354;SDS011;7777;52.254;9.618;2024-02-21T08:36:42;16.73;;;8.50;;
15354;SDS011;7777;52.254;9.618;2024-02-21T08:39:08;18.47;;;8.37;;
15354;SDS011;7777;52.254;9.618;2024-02-21T08:41:34;18.17;;;7.10;;
15354;SDS011;7777;52.254;9.618;2024-02-21T08:44:00;14.77;;;6.37;;
15354;SDS011;7777;52.254;9.618;2024-02-21T08:46:27;12.43;;;7.30;;
15354;SDS011;7777;52.254;9.618;2024-02-21T08:48:53;17.97;;;8.37;;
15354;SDS011;7777;52.254;9.618;2024-02-21T08:51:19;16.20;;;8.00;;
15354;SDS011;7777;52.254;9.618;2024-02-21T08:53:46;16.03;;;7.37;;
15354;SDS011;7777;52.254;9.618;2024-02-21T08:56:13;18.43;;;7.80;;
15354;SDS011;7777;52.254;9.618;2024-02-21T08:58:40;11.67;;;6.73;;
15354;SDS011;7777;52.254;9.618;2024-02-21T09:01:07;15.53;;;6.97;;
15354;SDS011;7777;52.254;9.618;2024-02-21T09:03:36;13.90;;;6.60;;
15354;SDS011;7777;52.254;9.618;2024-02-21T09:06:04;12.97;;;6.47;;
15354;SDS011;7777;52.254;9.618;2024-02-21T09:08:33;13.80;;;7.27;;
15354;SDS011;7777;52.254;9.618;2024-02-21T09:11:02;13.07;;;6.77;;
15354;SDS011;7777;52.254;9.618;2024-02-21T09:13:28;16.17;;;6.80;;
15354;SDS011;7777;52.254;9.618;2024-02-21T09:15:55;11.70;;;6.30;;
15354;SDS011;7777;52.254;9.618;2024-02-21T09:18:21;12.57;;;6.97;;
15354;SDS011;7777;52.254;9.618;2024-02-21T09:20:46;10.97;;;6.03;;
15354;SDS011;7777;52.254;9.618;2024-02-21T09:23:12;15.60;;;7.37;;
15354;SDS011;7777;52.254;9.618;2024-02-21T09:25:38;12.53;;;6.70;;
15354;SDS011;7777;52.254;9.618;2024-02-21T09:28:05;11.80;;;6.00;;
15354;SDS011;7777;52.254;9.618;2024-02-21T09:30:31;14.33;;;6.07;;
15354;SDS011;7777;52.254;9.618;2024-02-21T09:32:59;15.47;;;6.17;;
15354;SDS011;7777;52.254;9.618;2024-02-21T09:35:26;7.70;;;4.87;;
15354;SDS011;7777;52.254;9.618;2024-02-21T09:37:52;12.07;;;5.83;;
15354;SDS011;7777;52.254;9.618;2024-02-21T09:40:18;13.93;;;5.97;;
15354;SDS011;7777;52.254;9.618;2024-02-21T09:42:44;10.87;;;5.50;;
15354;SDS011;7777;52.254;9.618;2024-02-21T09:47:50;14.90;;;5.47;;
15354;SDS011;7777;52.254;9.618;2024-02-21T09:50:24;17.47;;;6.23;;
15354;SDS011;7777;52.254;9.618;2024-02-21T09:52:51;13.93;;;5.77;;
15354;SDS011;7777;52.254;9.618;2024-02-21T09:55:19;10.80;;;5.27;;
15354;SDS011;7777;52.254;9.618;2024-02-21T09:57:46;9.80;;;5.77;;
15354;SDS011;7777;52.254;9.618;2024-02-21T10:00:15;10.87;;;5.17;;
15354;SDS011;7777;52.254;9.618;2024-02-21T10:02:46;10.67;;;6.27;;
15354;SDS011;7777;52.254;9.618;2024-02-21T10:05:14;8.30;;;5.10;;
15354;SDS011;7777;52.254;9.618;2024-02-21T10:07:40;11.97;;;5.23;;
15354;SDS011;7777;52.254;9.618;2024-02-21T10:10:06;11.27;;;5.00;;
15354;SDS011;7777;52.254;9.618;2024-02-21T10:12:33;11.33;;;5.00;;
15354;SDS011;7777;52.254;9.618;2024-02-21T10:15:02;12.83;;;5.87;;
15354;SDS011;7777;52.254;9.618;2024-02-21T10:17:29;11.20;;;4.03;;
15354;SDS011;7777;52.254;9.618;2024-02-21T10:19:55;20.13;;;5.20;;
15354;SDS011;7777;52.254;9.618;2024-02-21T10:22:28;9.60;;;4.60;;
15354;SDS011;7777;52.254;9.618;2024-02-21T10:24:56;7.37;;;4.30;;
15354;SDS011;7777;52.254;9.618;2024-02-21T10:27:36;12.57;;;4.33;;
15354;SDS011;7777;52.254;9.618;2024-02-21T10:30:04;13.83;;;4.97;;
15354;SDS011;7777;52.254;9.618;2024-02-21T10:32:48;9.63;;;4.33;;
15354;SDS011;7777;52.254;9.618;2024-02-21T10:35:24;9.13;;;3.73;;
15354;SDS011;7777;52.254;9.618;2024-02-21T10:37:58;15.83;;;4.27;;
15354;SDS011;7777;52.254;9.618;2024-02-21T10:40:25;10.50;;;4.00;;
15354;SDS011;7777;52.254;9.618;2024-02-21T10:42:58;6.93;;;3.60;;
15354;SDS011;7777;52.254;9.618;2024-02-21T10:45:29;11.37;;;3.87;;
15354;SDS011;7777;52.254;9.618;2024-02-21T10:48:01;8.90;;;3.57;;
15354;SDS011;7777;52.254;9.618;2024-02-21T10:50:56;6.83;;;3.03;;
15354;SDS011;7777;52.254;9.618;2024-02-21T10:59:00;9.73;;;2.70;;
15354;SDS011;7777;52.254;9.618;2024-02-21T11:01:29;8.20;;;3.30;;
15354;SDS011;7777;52.254;9.618;2024-02-21T11:04:04;7.77;;;2.63;;
15354;SDS011;7777;52.254;9.618;2024-02-21T11:06:35;9.33;;;2.83;;
15354;SDS011;7777;52.254;9.618;2024-02-21T11:09:04;14.90;;;4.03;;
15354;SDS011;7777;52.254;9.618;2024-02-21T11:14:25;6.17;;;2.43;;
15354;SDS011;7777;52.254;9.618;2024-02-21T11:16:53;4.27;;;2.70;;
15354;SDS011;7777;52.254;9.618;2024-02-21T11:19:27;5.13;;;2.30;;
15354;SDS011;7777;52.254;9.618;2024-02-21T11:21:54;6.53;;;2.40;;
15354;SDS011;7777;52.254;9.618;2024-02-21T11:24:31;8.07;;;2.50;;
15354;SDS011;7777;52.254;9.618;2024-02-21T11:29:53;4.23;;;2.13;;
15354;SDS011;7777;52.254;9.618;2024-02-21T11:32:24;6.10;;;2.93;;
15354;SDS011;7777;52.254;9.618;2024-02-21T11:35:03;7.27;;;2.90;;
15354;SDS011;7777;52.254;9.618;2024-02-21T11:37:30;6.50;;;3.27;;
15354;SDS011;7777;52.254;9.618;2024-02-21T11:39:58;12.40;;;3.70;;
15354;SDS011;7777;52.254;9.618;2024-02-21T11:42:25;5.97;;;2.97;;
15354;SDS011;7777;52.254;9.618;2024-02-21T11:44:53;5.97;;;3.07;;
15354;SDS011;7777;52.254;9.618;2024-02-21T11:47:21;6.43;;;3.13;;
15354;SDS011;7777;52.254;9.618;2024-02-21T11:49:49;7.83;;;3.20;;
15354;SDS011;7777;52.254;9.618;2024-02-21T11:52:18;6.27;;;3.37;;
15354;SDS011;7777;52.254;9.618;2024-02-21T11:54:47;7.00;;;2.70;;
15354;SDS011;7777;52.254;9.618;2024-02-21T11:57:14;9.37;;;3.83;;
15354;SDS011;7777;52.254;9.618;2024-02-21T11:59:40;6.70;;;3.50;;
15354;SDS011;7777;52.254;9.618;2024-02-21T12:02:06;8.87;;;3.80;;
15354;SDS011;7777;52.254;9.618;2024-02-21T12:04:32;9.90;;;4.00;;
15354;SDS011;7777;52.254;9.618;2024-02-21T12:06:59;12.13;;;4.83;;
15354;SDS011;7777;52.254;9.618;2024-02-21T12:09:25;10.83;;;4.43;;
15354;SDS011;7777;52.254;9.618;2024-02-21T12:12:05;10.57;;;4.37;;
15354;SDS011;7777;52.254;9.618;2024-02-21T12:14:33;10.23;;;4.93;;
15354;SDS011;7777;52.254;9.618;2024-02-21T12:17:01;10.57;;;5.27;;
15354;SDS011;7777;52.254;9.618;2024-02-21T12:19:32;12.53;;;6.77;;
15354;SDS011;7777;52.254;9.618;2024-02-21T12:21:59;9.47;;;6.07;;
15354;SDS011;7777;52.254;9.618;2024-02-21T12:24:25;8.10;;;5.47;;
15354;SDS011;7777;52.254;9.618;2024-02-21T12:26:52;7.73;;;5.07;;
15354;SDS011;7777;52.254;9.618;2024-02-21T12:29:19;9.43;;;5.90;;
15354;SDS011;7777;52.254;9.618;2024-02-21T12:31:45;8.90;;;5.63;;
15354;SDS011;7777;52.254;9.618;2024-02-21T12:34:12;13.77;;;6.27;;
15354;SDS011;7777;52.254;9.618;2024-02-21T12:36:41;9.17;;;6.57;;
15354;SDS011;7777;52.254;9.618;2024-02-21T12:39:14;13.03;;;6.40;;
15354;SDS011;7777;52.254;9.618;2024-02-21T12:41:39;11.40;;;6.17;;
15354;SDS011;7777;52.254;9.618;2024-02-21T12:44:08;9.70;;;5.30;;
15354;SDS011;7777;52.254;9.618;2024-02-21T12:46:34;9.60;;;5.50;;
15354;SDS011;7777;52.254;9.618;2024-02-21T12:49:01;10.77;;;6.03;;
15354;SDS011;7777;52.254;9.618;2024-02-21T12:51:28;8.73;;;5.17;;
15354;SDS011;7777;52.254;9.618;2024-02-21T12:53:55;13.03;;;6.17;;
15354;SDS011;7777;52.254;9.618;2024-02-21T12:56:21;9.30;;;5.30;;
15354;SDS011;7777;52.254;9.618;2024-02-21T12:58:47;10.77;;;5.53;;
15354;SDS011;7777;52.254;9.618;2024-02-21T13:01:13;13.90;;;6.30;;
15354;SDS011;7777;52.254;9.618;2024-02-21T13:03:39;8.73;;;4.93;;
15354;SDS011;7777;52.254;9.618;2024-02-21T13:06:05;8.87;;;4.90;;
15354;SDS011;7777;52.254;9.618;2024-02-21T13:08:37;8.87;;;5.17;;
15354;SDS011;7777;52.254;9.618;2024-02-21T13:11:03;10.60;;;5.30;;
15354;SDS011;7777;52.254;9.618;2024-02-21T13:13:29;7.53;;;4.43;;
15354;SDS011;7777;52.254;9.618;2024-02-21T13:15:56;6.53;;;4.40;;
15354;SDS011;7777;52.254;9.618;2024-02-21T13:18:23;7.23;;;4.43;;
15354;SDS011;7777;52.254;9.618;2024-02-21T13:20:49;9.10;;;4.30;;
15354;SDS011;7777;52.254;9.618;2024-02-21T13:23:15;7.93;;;4.00;;
15354;SDS011;7777;52.254;9.618;2024-02-21T13:25:41;7.77;;;3.43;;
15354;SDS011;7777;52.254;9.618;2024-02-21T13:28:07;8.20;;;3.43;;
15354;SDS011;7777;52.254;9.618;2024-02-21T13:30:34;9.67;;;3.43;;
15354;SDS011;7777;52.254;9.618;2024-02-21T13:33:00;11.40;;;3.83;;
15354;SDS011;7777;52.254;9.618;2024-02-21T13:35:28;11.67;;;3.97;;
15354;SDS011;7777;52.254;9.618;2024-02-21T13:37:53;9.17;;;3.83;;
15354;SDS011;7777;52.254;9.618;2024-02-21T13:40:19;9.07;;;3.67;;
15354;SDS011;7777;52.254;9.618;2024-02-21T13:42:45;5.23;;;3.07;;
15354;SDS011;7777;52.254;9.618;2024-02-21T13:45:12;8.77;;;3.03;;
15354;SDS011;7777;52.254;9.618;2024-02-21T13:47:39;8.50;;;3.20;;
15354;SDS011;7777;52.254;9.618;2024-02-21T13:50:05;6.00;;;2.40;;
15354;SDS011;7777;52.254;9.618;2024-02-21T13:52:39;6.10;;;2.70;;
15354;SDS011;7777;52.254;9.618;2024-02-21T13:55:08;6.03;;;2.70;;
15354;SDS011;7777;52.254;9.618;2024-02-21T13:57:35;5.73;;;2.17;;
15354;SDS011;7777;52.254;9.618;2024-02-21T14:00:02;8.07;;;2.83;;
15354;SDS011;7777;52.254;9.618;2024-02-21T14:02:29;9.07;;;2.80;;
15354;SDS011;7777;52.254;9.618;2024-02-21T14:04:55;5.10;;;2.07;;
15354;SDS011;7777;52.254;9.618;2024-02-21T14:07:21;8.93;;;2.77;;
15354;SDS011;7777;52.254;9.618;2024-02-21T14:09:47;7.20;;;2.93;;
15354;SDS011;7777;52.254;9.618;2024-02-21T14:12:13;7.43;;;2.37;;
15354;SDS011;7777;52.254;9.618;2024-02-21T14:14:45;9.73;;;2.80;;
15354;SDS011;7777;52.254;9.618;2024-02-21T14:17:11;8.27;;;2.70;;
15354;SDS011;7777;52.254;9.618;2024-02-21T14:19:36;5.83;;;2.87;;
15354;SDS011;7777;52.254;9.618;2024-02-21T14:22:02;7.27;;;2.90;;
15354;SDS011;7777;52.254;9.618;2024-02-21T14:24:29;9.33;;;2.57;;
15354;SDS011;7777;52.254;9.618;2024-02-21T14:26:55;6.90;;;2.43;;
15354;SDS011;7777;52.254;9.618;2024-02-21T14:29:20;6.20;;;2.53;;
15354;SDS011;7777;52.254;9.618;2024-02-21T14:31:47;7.13;;;2.50;;
15354;SDS011;7777;52.254;9.618;2024-02-21T14:34:14;7.07;;;2.33;;
15354;SDS011;7777;52.254;9.618;2024-02-21T14:36:39;7.07;;;3.10;;
15354;SDS011;7777;52.254;9.618;2024-02-21T14:39:05;8.47;;;2.90;;
15354;SDS011;7777;52.254;9.618;2024-02-21T14:41:31;8.13;;;2.93;;
15354;SDS011;7777;52.254;9.618;2024-02-21T14:44:00;7.87;;;2.77;;
15354;SDS011;7777;52.254;9.618;2024-02-21T14:46:28;9.50;;;4.00;;
15354;SDS011;7777;52.254;9.618;2024-02-21T14:48:54;7.53;;;3.23;;
15354;SDS011;7777;52.254;9.618;2024-02-21T14:51:20;10.27;;;3.60;;
15354;SDS011;7777;52.254;9.618;2024-02-21T14:53:46;8.20;;;2.87;;
15354;SDS011;7777;52.254;9.618;2024-02-21T14:56:13;15.33;;;3.30;;